Time;durP1;ratioP1;P1;durP2;ratioP2;P2;SDS_P1;SDS_P2;PMS_P1;PMS_P2;Temp;Humidity;BMP_temperature;BMP_pressure;BME280_temperature;BME280_humidity;BME280_pressure;Samples;Min_cycle;Max_cycle;Signal;HPM_P1;HPM_P2
2022/05/04 00:02:19;;;;;;;;;28.75;24.75;;;;;15.15;56.59;101638.34;4963299;28;45554;-68
2022/05/04 00:04:45;;;;;;;;;33.25;24.75;;;;;15.15;56.28;101634.84;4963379;28;45265;-68
2022/05/04 00:07:10;;;;;;;;;28.25;23.50;;;;;15.10;56.54;101632.50;4963355;28;45538;-67
2022/05/04 00:09:36;;;;;;;;;25.25;22.00;;;;;15.10;56.87;101629.84;4962935;28;45358;-68
2022/05/04 00:12:02;;;;;;;;;28.00;26.25;;;;;15.07;56.44;101627.38;4945387;28;45376;-68
2022/05/04 00:14:29;;;;;;;;;25.75;25.75;;;;;15.07;56.63;101622.91;4928529;28;45312;-68
2022/05/04 00:16:55;;;;;;;;;29.50;24.00;;;;;15.08;56.41;101629.91;4963196;28;45282;-68
2022/05/04 00:19:21;;;;;;;;;27.50;25.00;;;;;15.04;56.80;101627.56;4945215;28;45495;-69
2022/05/04 00:21:46;;;;;;;;;26.25;22.50;;;;;15.00;56.66;101620.75;4963031;28;45288;-69
2022/05/04 00:24:12;;;;;;;;;25.75;23.00;;;;;14.95;56.93;101618.41;4963165;28;45223;-68
2022/05/04 00:26:37;;;;;;;;;28.75;23.00;;;;;14.90;57.00;101606.38;4962902;28;45394;-69
2022/05/04 00:29:03;;;;;;;;;28.00;23.00;;;;;14.92;56.65;101605.31;4962873;28;45391;-68
2022/05/04 00:31:28;;;;;;;;;25.25;22.50;;;;;14.95;56.93;101605.13;4962732;28;45213;-68
2022/05/04 00:33:54;;;;;;;;;25.50;22.00;;;;;14.90;56.96;101604.56;4962878;28;45323;-68
2022/05/04 00:36:19;;;;;;;;;29.00;27.00;;;;;14.90;57.03;101606.38;4962998;28;45441;-68
2022/05/04 00:38:45;;;;;;;;;33.25;27.50;;;;;14.89;57.01;101596.72;4962508;28;45316;-68
2022/05/04 00:41:10;;;;;;;;;30.75;24.75;;;;;14.95;56.96;101606.94;4962635;28;45456;-68
2022/05/04 00:43:36;;;;;;;;;26.75;24.00;;;;;14.95;57.08;101601.63;4962795;28;45308;-68
2022/05/04 00:46:01;;;;;;;;;32.50;25.00;;;;;14.92;57.16;101597.34;4962493;28;45433;-68
2022/05/04 00:48:27;;;;;;;;;25.75;23.50;;;;;14.93;57.31;101595.53;4962506;28;45983;-68
2022/05/04 00:50:55;;;;;;;;;25.75;21.25;;;;;14.87;57.01;101593.31;4962606;28;45310;-69
2022/05/04 00:53:21;;;;;;;;;33.25;27.25;;;;;14.87;56.92;101591.50;4962602;28;45489;-68
2022/05/04 00:55:47;;;;;;;;;32.75;29.25;;;;;14.89;57.16;101594.06;4962535;28;45433;-68
2022/05/04 01:01:01;;;;;;;;;29.75;25.50;;;;;14.85;57.39;101598.72;4962223;28;45467;-68
2022/05/04 01:03:26;;;;;;;;;29.50;28.25;;;;;14.86;57.09;101600.41;4962416;28;45392;-68
2022/05/04 01:05:52;;;;;;;;;31.50;27.50;;;;;14.92;57.32;101600.00;4962490;28;45317;-68
2022/05/04 01:08:17;;;;;;;;;32.00;26.75;;;;;14.93;56.95;101606.16;4961937;28;46244;-68
2022/05/04 01:10:43;;;;;;;;;34.75;25.50;;;;;14.92;57.34;101609.75;4962117;28;45365;-68
2022/05/04 01:13:08;;;;;;;;;31.75;26.25;;;;;14.90;57.47;101601.06;4957799;28;45340;-68
2022/05/04 01:15:34;;;;;;;;;26.25;25.50;;;;;14.87;57.47;101601.25;4954501;28;45356;-68
2022/05/04 01:18:00;;;;;;;;;26.75;22.75;;;;;14.82;57.29;101601.53;4961965;28;45227;-68
2022/05/04 01:20:26;;;;;;;;;25.75;24.75;;;;;14.76;57.50;101605.41;4962277;28;45330;-68
2022/05/04 01:22:52;;;;;;;;;25.75;23.00;;;;;14.75;57.55;101598.41;4962317;28;45175;-68
2022/05/04 01:25:17;;;;;;;;;31.50;28.00;;;;;14.72;57.72;101603.06;4944439;28;45607;-69
2022/05/04 01:27:43;;;;;;;;;30.50;26.75;;;;;14.71;57.82;101604.88;4961874;28;45954;-68
2022/05/04 01:30:09;;;;;;;;;32.00;26.75;;;;;14.70;57.76;101612.94;4961760;28;45391;-68
2022/05/04 01:32:34;;;;;;;;;35.00;26.50;;;;;14.68;57.63;101606.84;4962323;28;45395;-68
2022/05/04 01:35:00;;;;;;;;;27.50;27.00;;;;;14.66;57.81;101608.75;4962177;28;45359;-68
2022/05/04 01:37:25;;;;;;;;;31.50;25.50;;;;;14.62;57.81;101607.25;4961735;28;45351;-68
2022/05/04 01:39:51;;;;;;;;;32.25;26.50;;;;;14.59;57.82;101610.94;4961877;28;45315;-68
2022/05/04 01:42:16;;;;;;;;;36.00;28.75;;;;;14.58;58.06;101614.53;4961714;28;45447;-68
2022/05/04 01:44:45;;;;;;;;;36.75;30.75;;;;;14.57;57.69;101610.19;4961904;28;45497;-68
2022/05/04 01:47:11;;;;;;;;;27.75;24.00;;;;;14.59;58.09;101612.75;4961601;28;45355;-68
2022/05/04 01:49:38;;;;;;;;;28.25;24.50;;;;;14.62;57.76;101612.56;4961853;28;45379;-68
2022/05/04 01:52:04;;;;;;;;;35.00;30.00;;;;;14.62;57.82;101608.13;4962050;28;45533;-68
2022/05/04 01:54:30;;;;;;;;;29.00;24.50;;;;;14.61;57.68;101611.69;4961925;28;45336;-68
2022/05/04 01:56:55;;;;;;;;;29.50;26.00;;;;;14.62;58.02;101604.63;4961467;28;45364;-68
2022/05/04 01:59:21;;;;;;;;;29.50;23.25;;;;;14.56;57.54;101611.13;4961522;28;45254;-68
2022/05/04 02:01:47;;;;;;;;;26.75;24.25;;;;;14.49;57.79;101612.47;4961405;28;45332;-68
2022/05/04 02:04:13;;;;;;;;;35.25;26.75;;;;;14.42;57.76;101616.41;4961833;28;45466;-69
2022/05/04 02:06:39;;;;;;;;;25.75;25.75;;;;;14.39;58.11;101617.44;4961391;28;45364;-68
2022/05/04 02:09:06;;;;;;;;;36.25;27.25;;;;;14.38;58.07;101615.75;4961440;28;45399;-68
2022/05/04 02:11:32;;;;;;;;;31.00;26.25;;;;;14.35;57.89;101609.78;4961685;28;45419;-68
2022/05/04 02:13:59;;;;;;;;;29.25;27.00;;;;;14.34;57.73;101606.25;4961819;28;45413;-68
2022/05/04 02:16:25;;;;;;;;;31.00;26.75;;;;;14.36;57.95;101612.31;4961113;28;45274;-68
2022/05/04 02:18:51;;;;;;;;;28.75;23.50;;;;;14.31;58.16;101603.81;4961446;28;45485;-69
2022/05/04 02:21:16;;;;;;;;;35.25;28.00;;;;;14.31;58.03;101609.13;4961609;28;45298;-68
2022/05/04 02:23:42;;;;;;;;;32.25;25.50;;;;;14.34;58.20;101603.63;4961549;28;45519;-69
2022/05/04 02:26:07;;;;;;;;;31.00;26.50;;;;;14.36;58.06;101604.38;4961065;28;46024;-68
2022/05/04 02:28:33;;;;;;;;;27.00;25.25;;;;;14.36;58.21;101608.81;4961226;28;45462;-68
2022/05/04 02:30:59;;;;;;;;;36.50;30.25;;;;;14.31;57.91;101603.81;4961115;28;45284;-68
2022/05/04 02:33:24;;;;;;;;;36.25;28.50;;;;;14.30;57.96;101598.59;4961392;28;45245;-68
2022/05/04 02:38:34;;;;;;;;;26.25;23.25;;;;;14.26;57.95;101600.59;4963986;28;45426;-68
2022/05/04 02:41:00;;;;;;;;;32.75;29.50;;;;;14.22;58.18;101593.78;4964442;28;45291;-68
2022/05/04 02:43:26;;;;;;;;;34.75;30.75;;;;;14.20;58.18;101598.28;4964645;28;45164;-68
2022/05/04 02:45:52;;;;;;;;;28.75;25.75;;;;;14.17;58.19;101604.66;4964136;28;45268;-68
2022/05/04 02:48:18;;;;;;;;;34.00;31.25;;;;;14.16;58.05;101604.75;4964409;28;45451;-68
2022/05/04 02:50:43;;;;;;;;;31.75;28.25;;;;;14.12;58.33;101596.09;4964462;28;45165;-68
2022/05/04 02:53:09;;;;;;;;;33.50;30.25;;;;;14.11;58.41;101605.00;4964554;28;45295;-68
2022/05/04 02:55:35;;;;;;;;;33.00;31.75;;;;;14.05;58.39;101605.38;4964197;28;46298;-68
2022/05/04 02:58:01;;;;;;;;;36.25;30.00;;;;;14.04;58.41;101598.38;4964407;28;45370;-69
2022/05/04 03:00:26;;;;;;;;;41.25;34.25;;;;;14.01;58.44;101590.63;4963948;28;45229;-69
2022/05/04 03:02:54;;;;;;;;;36.50;28.25;;;;;13.98;58.33;101596.09;4964394;28;45359;-68
2022/05/04 03:05:20;;;;;;;;;29.25;27.00;;;;;13.92;58.33;101597.31;4964104;28;46094;-68
2022/05/04 03:07:46;;;;;;;;;41.50;34.00;;;;;13.83;58.50;101594.38;4964159;28;45487;-69
2022/05/04 03:10:13;;;;;;;;;31.75;25.75;;;;;13.80;58.81;101590.09;4964086;28;45424;-68
2022/05/04 03:12:40;;;;;;;;;51.00;38.25;;;;;13.78;58.81;101599.94;4964465;28;45464;-68
2022/05/04 03:15:06;;;;;;;;;38.00;31.25;;;;;13.69;58.87;101589.88;4963799;28;46184;-68
2022/05/04 03:17:33;;;;;;;;;37.00;30.00;;;;;13.64;58.99;101590.13;4964060;28;45501;-68
2022/05/04 03:19:59;;;;;;;;;33.00;26.75;;;;;13.60;59.19;101585.97;4963553;28;45447;-69
2022/05/04 03:22:25;;;;;;;;;35.25;28.25;;;;;13.61;59.10;101582.38;4964077;28;45230;-69
2022/05/04 03:24:51;;;;;;;;;29.75;25.00;;;;;13.68;59.03;101590.81;4963758;28;46049;-68
2022/05/04 03:27:17;;;;;;;;;31.00;28.25;;;;;13.66;58.99;101582.94;4963861;28;45216;-68
2022/05/04 03:29:43;;;;;;;;;33.25;27.50;;;;;13.67;58.98;101586.47;4963781;28;45172;-68
2022/05/04 03:32:09;;;;;;;;;35.25;31.50;;;;;13.62;59.05;101581.44;4963750;28;45156;-68
2022/05/04 03:34:34;;;;;;;;;32.75;24.00;;;;;13.55;59.19;101579.25;4963858;28;45443;-68
2022/05/04 03:37:00;;;;;;;;;27.25;26.00;;;;;13.50;59.33;101581.28;4963690;28;45325;-68
2022/05/04 03:39:27;;;;;;;;;32.75;30.50;;;;;13.52;59.17;101582.94;4963805;28;45365;-68
2022/05/04 03:41:53;;;;;;;;;32.75;25.50;;;;;13.52;59.44;101575.00;4963433;28;45339;-68
2022/05/04 03:44:18;;;;;;;;;35.50;24.50;;;;;13.52;59.29;101580.28;4963401;28;45441;-69
2022/05/04 03:46:49;;;;;;;;;33.50;30.00;;;;;13.51;59.17;101575.94;4963527;28;45431;-68
2022/05/04 03:49:16;;;;;;;;;41.00;29.75;;;;;13.54;59.18;101578.38;4963602;28;45286;-69
2022/05/04 03:51:42;;;;;;;;;26.75;23.25;;;;;13.58;59.24;101581.69;4963602;28;45565;-69
2022/05/04 03:54:09;;;;;;;;;33.00;28.00;;;;;13.62;59.21;101583.25;4963466;28;45359;-69
2022/05/04 03:56:34;;;;;;;;;29.00;26.75;;;;;13.65;59.37;101575.94;4963174;28;45296;-69
2022/05/04 03:59:01;;;;;;;;;31.00;30.00;;;;;13.68;59.31;101585.53;4963425;28;45464;-68
2022/05/04 04:01:27;;;;;;;;;36.50;30.25;;;;;13.68;59.14;101578.44;4963297;28;45214;-69
2022/05/04 04:03:52;;;;;;;;;37.25;28.75;;;;;13.70;59.24;101575.69;4961981;28;45415;-68
2022/05/04 04:06:18;;;;;;;;;42.00;29.25;;;;;13.69;59.33;101566.06;4963181;28;45270;-68
2022/05/04 04:08:43;;;;;;;;;31.75;26.75;;;;;13.68;59.53;101564.34;4963272;28;45211;-68
2022/05/04 04:11:10;;;;;;;;;30.00;25.00;;;;;13.69;59.23;101572.19;4963282;28;45387;-68
2022/05/04 04:13:36;;;;;;;;;39.25;33.00;;;;;13.72;59.23;101563.22;4963089;28;46333;-68
2022/05/04 04:16:02;;;;;;;;;34.00;28.50;;;;;13.72;59.15;101571.16;4945436;28;45451;-68
2022/05/04 04:18:28;;;;;;;;;38.00;31.25;;;;;13.68;58.74;101570.50;4963216;28;45371;-68
2022/05/04 04:23:39;;;;;;;;;36.25;29.25;;;;;13.64;59.11;101576.91;4962996;28;45292;-68
2022/05/04 04:26:07;;;;;;;;;33.75;28.75;;;;;13.64;59.08;101582.19;4962748;28;45458;-69
2022/05/04 04:28:34;;;;;;;;;35.25;28.25;;;;;13.66;59.31;101587.41;4963048;28;45213;-69
2022/05/04 04:31:00;;;;;;;;;36.25;32.00;;;;;13.67;59.45;101584.69;4962647;28;45354;-69
2022/05/04 04:33:26;;;;;;;;;32.00;27.25;;;;;13.68;59.47;101588.19;4962819;28;46083;-69
2022/05/04 04:36:01;;;;;;;;;43.00;30.50;;;;;13.64;59.47;101591.94;4962612;28;45326;-68
2022/05/04 04:38:28;;;;;;;;;36.75;29.75;;;;;13.63;59.45;101591.09;4963063;28;45320;-70
2022/05/04 04:40:53;;;;;;;;;30.75;27.50;;;;;13.64;59.55;101590.13;4962747;28;45453;-67
2022/05/04 04:43:19;;;;;;;;;38.25;28.50;;;;;13.64;59.22;101595.44;4962595;28;46100;-68
2022/05/04 04:45:47;;;;;;;;;34.50;29.25;;;;;13.64;59.16;101591.94;4962421;28;45251;-69
2022/05/04 04:48:16;;;;;;;;;31.50;26.00;;;;;13.61;59.32;101592.97;4962586;28;45279;-68
2022/05/04 04:50:51;;;;;;;;;32.00;26.75;;;;;13.57;59.15;101588.78;4962852;28;45367;-68
2022/05/04 04:53:19;;;;;;;;;35.75;31.00;;;;;13.56;58.99;101591.53;4962382;28;45402;-68
2022/05/04 04:55:46;;;;;;;;;33.75;29.00;;;;;13.53;59.36;101592.56;4962535;28;45411;-69
2022/05/04 04:58:13;;;;;;;;;35.25;33.00;;;;;13.52;59.05;101590.03;4962580;28;45268;-68
2022/05/04 05:00:38;;;;;;;;;36.25;28.25;;;;;13.46;59.20;101590.38;4961770;28;45237;-68
2022/05/04 05:03:04;;;;;;;;;30.25;26.50;;;;;13.48;59.33;101599.06;4962268;28;46084;-68
2022/05/04 05:05:30;;;;;;;;;28.25;23.00;;;;;13.51;59.12;101596.22;4962473;28;45427;-68
2022/05/04 05:07:55;;;;;;;;;42.25;31.00;;;;;13.51;58.92;101598.88;4962156;28;45312;-68
2022/05/04 05:10:21;;;;;;;;;36.25;31.50;;;;;13.52;58.62;101597.97;4962214;28;45264;-68
2022/05/04 05:12:50;;;;;;;;;33.00;27.00;;;;;13.48;59.00;101599.91;4962245;28;45347;-68
2022/05/04 05:18:00;;;;;;;;;33.50;28.00;;;;;13.45;59.14;101609.84;4962394;28;45477;-68
2022/05/04 05:20:25;;;;;;;;;27.50;24.75;;;;;13.44;59.02;101603.69;4962047;28;45487;-68
2022/05/04 05:22:51;;;;;;;;;29.75;25.75;;;;;13.41;58.96;101604.69;4961829;28;45548;-68
2022/05/04 05:25:16;;;;;;;;;38.75;30.25;;;;;13.39;58.97;101596.00;4961950;28;45222;-68
2022/05/04 05:27:42;;;;;;;;;31.75;29.00;;;;;13.37;59.07;101603.19;4962304;28;45370;-68
2022/05/04 05:30:07;;;;;;;;;33.00;25.25;;;;;13.35;59.17;101609.47;4961849;28;45246;-68
2022/05/04 05:32:33;;;;;;;;;39.75;32.75;;;;;13.36;59.02;101606.78;4961799;28;45323;-68
2022/05/04 05:34:59;;;;;;;;;29.00;24.75;;;;;13.36;59.09;101604.13;4944280;28;45327;-68
2022/05/04 05:37:24;;;;;;;;;32.00;24.75;;;;;13.36;59.02;101600.63;4961915;28;45259;-68
2022/05/04 05:39:49;;;;;;;;;33.50;27.75;;;;;13.38;59.18;101610.19;4961767;28;45520;-68
2022/05/04 05:42:15;;;;;;;;;28.75;23.25;;;;;13.38;58.87;101612.81;4961551;28;45462;-68
2022/05/04 05:44:41;;;;;;;;;37.25;26.50;;;;;13.40;58.84;101613.59;4961552;28;45314;-70
2022/05/04 05:47:07;;;;;;;;;33.50;28.00;;;;;13.41;58.78;101614.44;4944219;28;45419;-68
2022/05/04 05:49:32;;;;;;;;;32.00;24.25;;;;;13.41;58.61;101615.28;4961770;28;45454;-70
2022/05/04 05:51:58;;;;;;;;;30.00;23.25;;;;;13.46;58.71;101622.13;4961459;28;45971;-70
2022/05/04 05:54:24;;;;;;;;;30.25;25.50;;;;;13.48;58.45;101618.44;4961473;28;45338;-70
2022/05/04 05:56:49;;;;;;;;;26.25;23.75;;;;;13.49;58.71;101624.59;4961472;28;45272;-70
2022/05/04 05:59:15;;;;;;;;;32.50;28.00;;;;;13.51;58.76;101628.88;4961592;28;45276;-70
2022/05/04 06:01:41;;;;;;;;;37.50;27.25;;;;;13.52;58.57;101629.72;4961188;28;45801;-69
2022/05/04 06:04:08;;;;;;;;;35.00;28.50;;;;;13.50;58.63;101626.28;4961336;28;45235;-70
2022/05/04 06:06:33;;;;;;;;;23.50;22.00;;;;;13.55;58.75;101621.59;4961446;28;45474;-69
2022/05/04 06:08:59;;;;;;;;;38.75;30.00;;;;;13.50;58.34;101628.94;4961618;28;45140;-69
2022/05/04 06:11:24;;;;;;;;;36.00;27.00;;;;;13.55;58.87;101638.31;4961137;28;45559;-69
2022/05/04 06:13:54;;;;;;;;;37.25;25.00;;;;;13.58;58.59;101627.56;4947304;28;45372;-69
2022/05/04 06:16:20;;;;;;;;;35.25;27.00;;;;;13.56;58.16;101623.28;4964753;28;45172;-69
2022/05/04 06:18:46;;;;;;;;;32.75;28.50;;;;;13.59;58.63;101633.72;4965083;28;45179;-69
2022/05/04 06:21:12;;;;;;;;;30.50;24.75;;;;;13.61;58.40;101637.97;4964642;28;45885;-69
2022/05/04 06:23:38;;;;;;;;;33.25;31.50;;;;;13.66;58.66;101643.00;4964861;28;45332;-69
2022/05/04 06:26:03;;;;;;;;;31.25;26.25;;;;;13.73;58.70;101643.50;4964509;28;45546;-69
2022/05/04 06:28:29;;;;;;;;;37.00;25.50;;;;;13.80;58.63;101644.84;4964820;28;45257;-69
2022/05/04 06:36:23;;;;;;;;;28.00;23.25;;;;;14.01;57.50;101658.66;4964618;28;45169;-69
2022/05/04 06:38:49;;;;;;;;;36.50;29.25;;;;;14.04;57.67;101656.66;4964490;28;45676;-69
2022/05/04 06:41:14;;;;;;;;;33.75;25.75;;;;;14.05;57.65;101649.56;4964347;28;46318;-69
2022/05/04 06:43:40;;;;;;;;;36.75;33.00;;;;;14.13;57.73;101653.44;4963584;28;45332;-68
2022/05/04 06:46:06;;;;;;;;;27.00;24.00;;;;;14.29;57.63;101656.03;4964038;28;45368;-68
2022/05/04 06:48:31;;;;;;;;;32.50;27.00;;;;;14.46;57.29;101647.13;4963391;28;45463;-68
2022/05/04 06:50:57;;;;;;;;;38.00;31.25;;;;;14.58;57.12;101645.50;4964083;28;45946;-68
2022/05/04 06:53:22;;;;;;;;;42.25;32.00;;;;;14.68;56.88;101633.38;4964389;28;45391;-68
2022/05/04 06:55:48;;;;;;;;;34.25;27.25;;;;;14.77;56.67;101633.69;4964454;28;45347;-68
2022/05/04 06:58:13;;;;;;;;;35.00;31.50;;;;;14.87;56.24;101627.78;4964462;28;45504;-68
2022/05/04 07:00:39;;;;;;;;;36.50;29.75;;;;;14.86;56.22;101634.91;4963803;28;45294;-69
2022/05/04 07:03:04;;;;;;;;;32.00;26.50;;;;;14.83;56.15;101632.41;4964163;28;45241;-68
2022/05/04 07:05:30;;;;;;;;;35.00;30.50;;;;;14.79;56.32;101637.06;4963789;28;45275;-68
2022/05/04 07:07:55;;;;;;;;;32.75;26.50;;;;;14.87;56.67;101638.41;4964016;28;45612;-68
2022/05/04 07:10:21;;;;;;;;;44.00;32.75;;;;;14.93;56.55;101640.66;4963868;28;46294;-68
2022/05/04 07:12:48;;;;;;;;;41.25;35.50;;;;;15.03;56.45;101644.44;4964037;28;45279;-68
2022/05/04 07:15:14;;;;;;;;;32.75;30.25;;;;;15.08;56.12;101642.31;4963788;28;45241;-67
2022/05/04 07:17:40;;;;;;;;;37.75;33.50;;;;;15.05;56.12;101642.53;4963773;28;45482;-69
2022/05/04 07:20:06;;;;;;;;;40.50;33.00;;;;;15.06;55.89;101649.53;4963783;28;45458;-67
2022/05/04 07:22:32;;;;;;;;;30.00;29.75;;;;;15.02;55.98;101654.22;4963394;28;45325;-68
2022/05/04 07:24:57;;;;;;;;;38.25;32.75;;;;;14.99;56.11;101649.06;4963979;28;45287;-68
2022/05/04 07:27:23;;;;;;;;;32.75;30.25;;;;;14.94;56.00;101651.19;4963826;28;45373;-68
2022/05/04 07:29:48;;;;;;;;;36.50;29.75;;;;;14.92;56.23;101652.22;4963476;28;45353;-68
2022/05/04 07:32:14;;;;;;;;;35.00;27.25;;;;;14.90;56.57;101654.13;4963399;28;45501;-68
2022/05/04 07:34:40;;;;;;;;;38.50;31.00;;;;;14.89;56.98;101653.25;4963933;28;45231;-68
2022/05/04 07:37:06;;;;;;;;;40.00;30.75;;;;;14.95;56.73;101655.53;4963716;28;45593;-68
2022/05/04 07:42:21;;;;;;;;;40.25;30.00;;;;;14.94;56.60;101667.09;4963332;28;45169;-69
2022/05/04 07:44:52;;;;;;;;;34.00;30.00;;;;;14.92;56.70;101676.09;4963505;28;45331;-68
2022/05/04 07:47:19;;;;;;;;;42.25;31.50;;;;;14.92;56.85;101668.97;4963353;28;45165;-68
2022/05/04 07:49:44;;;;;;;;;33.75;29.25;;;;;14.97;56.67;101666.91;4963288;28;46576;-69
2022/05/04 07:52:10;;;;;;;;;32.50;31.25;;;;;15.00;56.32;101673.81;4963174;28;45337;-68
2022/05/04 07:54:35;;;;;;;;;36.25;29.00;;;;;15.02;56.43;101672.78;4963104;28;45376;-68
2022/05/04 07:57:00;;;;;;;;;40.50;33.00;;;;;15.04;56.34;101670.03;4963251;28;45412;-68
2022/05/04 07:59:26;;;;;;;;;38.75;29.50;;;;;15.08;56.56;101666.22;4963104;28;46122;-69
2022/05/04 08:04:36;;;;;;;;;40.50;32.50;;;;;15.14;56.59;101670.28;4963390;28;45481;-68
2022/05/04 08:07:01;;;;;;;;;45.50;33.50;;;;;15.16;56.43;101666.56;4963221;28;45599;-68
2022/05/04 08:09:27;;;;;;;;;45.50;33.50;;;;;15.20;56.22;101665.44;4962901;28;45306;-68
2022/05/04 08:11:53;;;;;;;;;35.50;31.50;;;;;15.24;56.03;101660.78;4963047;28;45305;-68
2022/05/04 08:14:19;;;;;;;;;34.75;26.75;;;;;15.26;56.18;101670.38;4963079;28;45287;-68
2022/05/04 08:16:44;;;;;;;;;46.00;33.25;;;;;15.26;56.31;101667.72;4963275;28;45414;-68
2022/05/04 08:19:10;;;;;;;;;36.75;32.25;;;;;15.27;56.04;101668.56;4962775;28;45212;-68
2022/05/04 08:21:38;;;;;;;;;45.25;35.00;;;;;15.33;55.87;101674.34;4963177;28;45191;-68
2022/05/04 08:24:04;;;;;;;;;41.25;30.00;;;;;15.38;55.96;101673.16;4945610;28;45307;-69
2022/05/04 08:26:30;;;;;;;;;40.00;31.50;;;;;15.39;55.95;101678.38;4962903;28;45518;-68
2022/05/04 08:28:55;;;;;;;;;36.50;29.50;;;;;15.41;55.84;101673.00;4962619;28;45561;-68
2022/05/04 08:31:24;;;;;;;;;42.25;32.75;;;;;15.43;55.96;101682.56;4962844;28;45344;-68
2022/05/04 08:33:50;;;;;;;;;35.25;29.00;;;;;15.46;55.94;101682.34;4962928;28;45440;-68
2022/05/04 08:36:16;;;;;;;;;41.00;30.75;;;;;15.50;55.88;101675.06;4962221;28;45240;-68
2022/05/04 08:38:42;;;;;;;;;48.00;35.00;;;;;15.59;56.00;101677.09;4962685;28;45273;-68
2022/05/04 08:41:07;;;;;;;;;36.00;32.25;;;;;15.68;55.77;101673.88;4962474;28;45213;-68
2022/05/04 08:43:34;;;;;;;;;41.75;33.25;;;;;15.76;55.40;101676.88;4962761;28;45289;-68
2022/05/04 08:46:02;;;;;;;;;42.00;32.00;;;;;15.89;55.43;101675.13;4962491;28;45248;-68
2022/05/04 08:48:32;;;;;;;;;40.75;32.50;;;;;15.99;55.14;101675.34;4944775;28;45409;-68
2022/05/04 08:51:03;;;;;;;;;44.50;35.75;;;;;16.05;54.82;101676.75;4962635;28;45419;-68
2022/05/04 08:53:29;;;;;;;;;38.00;32.75;;;;;16.03;54.69;101678.63;4962765;28;45336;-68
2022/05/04 08:55:55;;;;;;;;;42.75;34.50;;;;;16.05;54.78;101674.09;4962504;28;45168;-68
2022/05/04 08:58:21;;;;;;;;;45.25;35.00;;;;;16.09;54.65;101680.88;4962249;28;45665;-69
2022/05/04 09:00:46;;;;;;;;;42.00;33.50;;;;;16.10;54.63;101680.78;4944742;28;45238;-67
2022/05/04 09:03:12;;;;;;;;;45.75;34.25;;;;;16.18;54.68;101690.91;4962390;28;45238;-67
2022/05/04 09:05:40;;;;;;;;;45.75;31.75;;;;;16.35;54.61;101677.34;4962312;28;45510;-67
2022/05/04 09:08:07;;;;;;;;;38.25;30.50;;;;;16.57;54.51;101681.16;4962119;28;45357;-69
2022/05/04 09:10:38;;;;;;;;;42.50;35.00;;;;;16.71;53.99;101684.59;4962000;28;45396;-68
2022/05/04 09:13:04;;;;;;;;;37.25;31.75;;;;;16.81;53.70;101689.25;4962114;28;45291;-69
2022/05/04 09:15:35;;;;;;;;;45.00;34.25;;;;;16.84;53.49;101684.59;4962060;28;45418;-70
2022/05/04 09:18:01;;;;;;;;;38.50;29.00;;;;;16.87;53.45;101681.69;4962144;28;46307;-69
2022/05/04 09:20:52;;;;;;;;;43.25;34.75;;;;;16.99;53.56;101688.81;4962043;28;45189;-69
2022/05/04 09:23:23;;;;;;;;;45.00;36.75;;;;;17.12;52.87;101686.13;4962207;28;45336;-68
2022/05/04 09:25:54;;;;;;;;;43.25;32.50;;;;;17.20;52.73;101686.41;4962056;28;45467;-68
2022/05/04 09:28:21;;;;;;;;;46.00;34.00;;;;;17.22;52.49;101688.97;4962357;28;46016;-68
2022/05/04 09:30:50;;;;;;;;;51.25;34.75;;;;;17.25;52.44;101686.09;4961621;28;45425;-68
2022/05/04 09:33:17;;;;;;;;;41.50;33.25;;;;;17.34;52.54;101677.44;4962111;28;45426;-69
2022/05/04 09:35:43;;;;;;;;;32.00;27.75;;;;;17.40;52.08;101671.66;4962019;28;45329;-68
2022/05/04 09:46:43;;;;;;;;;44.00;33.00;;;;;17.48;51.72;101671.13;4961654;28;45323;-67
2022/05/04 09:49:14;;;;;;;;;36.00;29.75;;;;;17.51;51.67;101661.06;4961760;28;45431;-68
2022/05/04 09:51:43;;;;;;;;;39.75;31.75;;;;;17.59;51.71;101661.34;4961760;28;45220;-68
2022/05/04 09:54:20;;;;;;;;;36.50;32.00;;;;;17.58;51.13;101664.13;4961923;28;45328;-68
2022/05/04 09:56:54;;;;;;;;;35.00;32.00;;;;;17.49;51.06;101660.34;4961832;28;45624;-68
2022/05/04 09:59:25;;;;;;;;;32.50;28.00;;;;;17.39;51.00;101661.97;4961288;28;45385;-68
2022/05/04 10:01:52;;;;;;;;;25.75;24.75;;;;;17.40;51.34;101649.50;4961215;28;45403;-68
2022/05/04 10:04:20;;;;;;;;;38.75;32.00;;;;;17.53;51.47;101653.81;4961892;28;45380;-68
2022/05/04 10:06:47;;;;;;;;;36.25;28.50;;;;;17.66;51.25;101659.09;4961558;28;45222;-68
2022/05/04 10:09:13;;;;;;;;;38.75;30.00;;;;;17.79;51.20;101654.59;4961224;28;46242;-67
2022/05/04 10:11:39;;;;;;;;;34.75;30.25;;;;;17.87;50.55;101658.50;4961436;28;45214;-68
2022/05/04 10:14:09;;;;;;;;;25.25;23.75;;;;;17.88;50.44;101660.19;4961424;28;45463;-68
2022/05/04 10:16:42;;;;;;;;;33.00;27.75;;;;;17.91;49.80;101658.13;4961482;28;45437;-68
2022/05/04 10:19:25;;;;;;;;;33.25;28.25;;;;;18.00;50.41;101653.91;4961092;28;46556;-68
2022/05/04 10:21:55;;;;;;;;;38.50;31.75;;;;;18.07;50.34;101661.31;4961367;28;45506;-68
2022/05/04 10:24:21;;;;;;;;;34.25;30.25;;;;;18.08;50.18;101657.69;4961568;28;45321;-69
2022/05/04 10:26:47;;;;;;;;;39.75;30.75;;;;;18.16;50.49;101653.59;4961385;28;45257;-68
2022/05/04 10:32:27;;;;;;;;;43.25;32.25;;;;;18.34;49.96;101652.19;4961358;28;45386;-68
2022/05/04 10:35:21;;;;;;;;;33.00;30.50;;;;;18.46;50.10;101653.91;4961409;28;45299;-68
2022/05/04 10:38:05;;;;;;;;;35.50;30.75;;;;;18.55;49.96;101655.84;4961350;28;45236;-68
2022/05/04 10:40:50;;;;;;;;;34.50;30.75;;;;;18.63;50.00;101652.56;4960918;28;46358;-68
2022/05/04 10:43:32;;;;;;;;;27.25;26.75;;;;;18.66;49.51;101658.56;4961000;28;45164;-68
2022/05/04 10:46:05;;;;;;;;;27.75;25.00;;;;;18.77;49.31;101660.38;4960669;28;45567;-69
2022/05/04 10:48:30;;;;;;;;;25.75;24.25;;;;;18.88;49.08;101664.84;4960821;28;45381;-68
2022/05/04 10:51:02;;;;;;;;;32.00;27.50;;;;;18.95;48.23;101653.56;4960883;28;45470;-68
2022/05/04 10:53:28;;;;;;;;;26.25;25.25;;;;;18.98;48.47;101665.84;4960638;28;45241;-68
2022/05/04 10:56:06;;;;;;;;;30.75;23.00;;;;;18.99;48.62;101662.19;4960781;28;45315;-68
2022/05/04 10:58:52;;;;;;;;;29.00;22.75;;;;;19.02;48.26;101661.09;4962245;28;45377;-68
2022/05/04 11:01:34;;;;;;;;;25.00;20.00;;;;;19.02;47.96;101663.75;4963771;28;46239;-68
2022/05/04 11:04:11;;;;;;;;;25.75;17.75;;;;;19.08;47.78;101660.59;4963888;28;45261;-68
2022/05/04 11:06:54;;;;;;;;;20.00;19.75;;;;;19.15;47.84;101664.47;4946567;28;45401;-68
2022/05/04 11:09:29;;;;;;;;;22.75;16.00;;;;;19.17;46.88;101652.69;4964069;28;45420;-69
2022/05/04 11:12:00;;;;;;;;;18.00;15.25;;;;;19.24;47.01;101655.72;4963954;28;45368;-68
2022/05/04 11:14:26;;;;;;;;;15.50;14.50;;;;;19.31;46.99;101651.56;4963599;28;45252;-67
2022/05/04 11:16:54;;;;;;;;;22.00;17.75;;;;;19.37;46.55;101653.75;4964094;28;45299;-68
2022/05/04 11:19:23;;;;;;;;;18.75;12.75;;;;;19.46;46.47;101644.13;4963997;28;45575;-68
2022/05/04 11:21:48;;;;;;;;;19.50;15.00;;;;;19.53;46.09;101646.16;4963565;28;45322;-68
2022/05/04 11:24:15;;;;;;;;;15.25;12.50;;;;;19.59;45.57;101649.31;4963875;28;45328;-69
2022/05/04 11:26:46;;;;;;;;;13.50;11.25;;;;;19.66;45.46;101638.00;4963642;28;45308;-69
2022/05/04 11:29:16;;;;;;;;;11.25;11.25;;;;;19.69;44.87;101643.09;4946024;28;45373;-68
2022/05/04 11:31:48;;;;;;;;;10.75;8.25;;;;;19.62;44.04;101633.91;4963735;28;45184;-68
2022/05/04 11:34:17;;;;;;;;;11.25;9.50;;;;;19.64;44.54;101639.13;4946099;28;45364;-69
2022/05/04 11:36:47;;;;;;;;;11.75;9.00;;;;;19.65;44.42;101647.00;4963762;28;45204;-69
2022/05/04 11:39:15;;;;;;;;;10.25;9.50;;;;;19.70;44.31;101642.13;4963719;28;45324;-69
2022/05/04 11:41:44;;;;;;;;;14.25;10.00;;;;;19.77;44.10;101637.97;4963221;28;45378;-68
2022/05/04 11:44:10;;;;;;;;;11.75;10.00;;;;;19.83;44.41;101631.28;4963421;28;45400;-69